createdAt,value
2023-03-01T00:02:10.698Z,17.60
2023-03-01T00:04:37.866Z,17.63
2023-03-01T00:07:05.011Z,18.83
2023-03-01T00:09:32.133Z,17.30
2023-03-01T00:11:59.242Z,17.17
2023-03-01T00:14:26.772Z,17.53
2023-03-01T00:16:54.108Z,18.00
2023-03-01T00:19:23.015Z,16.93
2023-03-01T00:21:50.255Z,17.93
2023-03-01T00:24:17.777Z,17.57
2023-03-01T00:26:44.952Z,17.53
2023-03-01T00:29:12.118Z,18.37
2023-03-01T00:31:39.240Z,17.03
2023-03-01T00:34:07.034Z,17.60
2023-03-01T00:36:35.726Z,17.20
2023-03-01T00:39:04.134Z,17.37
2023-03-01T00:41:31.302Z,17.80
2023-03-01T00:43:58.656Z,18.30
2023-03-01T00:46:27.843Z,18.07
2023-03-01T00:48:55.233Z,18.17
2023-03-01T00:51:25.402Z,18.67
2023-03-01T00:53:53.356Z,18.97
2023-03-01T00:56:20.826Z,18.90
2023-03-01T00:58:48.521Z,18.43
2023-03-01T01:01:20.400Z,19.07
2023-03-01T01:03:48.839Z,18.80
2023-03-01T01:06:23.394Z,19.40
2023-03-01T01:08:51.410Z,18.87
2023-03-01T01:11:18.529Z,18.97
2023-03-01T01:13:46.785Z,18.90
2023-03-01T01:16:14.453Z,18.87
2023-03-01T01:18:41.935Z,19.43
2023-03-01T01:21:10.647Z,18.87
2023-03-01T01:23:38.458Z,18.93
2023-03-01T01:26:09.644Z,19.27
2023-03-01T01:28:37.071Z,18.83
2023-03-01T01:31:04.396Z,19.23
2023-03-01T01:33:31.517Z,19.07
2023-03-01T01:35:59.012Z,19.80
2023-03-01T01:38:26.472Z,19.33
2023-03-01T01:40:53.657Z,19.40
2023-03-01T01:43:25.544Z,18.57
2023-03-01T01:45:54.747Z,20.10
2023-03-01T01:48:23.506Z,19.13
2023-03-01T01:50:57.427Z,19.27
2023-03-01T01:53:25.870Z,20.33
2023-03-01T01:55:59.685Z,20.33
2023-03-01T01:58:29.209Z,19.83
2023-03-01T02:00:56.394Z,20.40
2023-03-01T02:03:30.005Z,19.10
2023-03-01T02:05:57.197Z,20.00
2023-03-01T02:08:26.693Z,19.83
2023-03-01T02:10:54.815Z,19.13
2023-03-01T02:13:21.960Z,20.57
2023-03-01T02:15:49.234Z,20.47
2023-03-01T02:18:19.257Z,19.83
2023-03-01T02:21:06.704Z,19.17
2023-03-01T02:23:34.622Z,19.83
2023-03-01T02:26:07.052Z,19.07
2023-03-01T02:28:35.406Z,18.77
2023-03-01T02:31:21.843Z,19.27
2023-03-01T02:33:49.692Z,19.03
2023-03-01T02:36:35.934Z,19.63
2023-03-01T02:39:04.385Z,18.87
2023-03-01T02:41:33.656Z,20.20
2023-03-01T02:44:00.788Z,19.67
2023-03-01T02:46:28.284Z,19.53
2023-03-01T02:48:59.709Z,19.90
2023-03-01T02:51:44.447Z,19.87
2023-03-01T02:54:17.784Z,19.80
2023-03-01T02:56:49.138Z,20.73
2023-03-01T02:59:17.275Z,19.57
2023-03-01T03:01:45.478Z,20.83
2023-03-01T03:04:18.660Z,20.63
2023-03-01T03:06:50.049Z,19.37
2023-03-01T03:09:17.723Z,20.50
2023-03-01T03:11:44.981Z,20.10
2023-03-01T03:14:16.113Z,20.03
2023-03-01T03:16:45.218Z,20.53
2023-03-01T03:19:12.669Z,20.57
2023-03-01T03:21:39.827Z,20.60
2023-03-01T03:24:07.268Z,20.30
2023-03-01T03:26:34.559Z,18.90
2023-03-01T03:29:02.113Z,20.33
2023-03-01T03:31:29.374Z,20.17
2023-03-01T03:33:57.588Z,19.60
2023-03-01T03:36:25.842Z,19.13
2023-03-01T03:38:52.981Z,18.93
2023-03-01T03:41:20.220Z,21.20
2023-03-01T03:43:47.417Z,20.17
2023-03-01T03:46:14.754Z,20.13
2023-03-01T03:48:43.278Z,20.57
2023-03-01T03:51:14.300Z,19.83
2023-03-01T03:53:41.898Z,20.80
2023-03-01T03:56:09.095Z,21.10
2023-03-01T03:58:36.384Z,19.43
2023-03-01T04:01:03.585Z,20.13
2023-03-01T04:03:31.621Z,19.80
2023-03-01T04:05:59.461Z,19.33
2023-03-01T04:08:27.063Z,19.63
2023-03-01T04:10:54.892Z,21.13
2023-03-01T04:13:23.260Z,21.17
2023-03-01T04:15:54.172Z,20.17
2023-03-01T04:18:22.143Z,20.90
2023-03-01T04:20:49.290Z,19.83
2023-03-01T04:23:19.934Z,20.00
2023-03-01T04:25:54.977Z,20.87
2023-03-01T04:28:26.531Z,20.70
2023-03-01T04:30:54.635Z,19.77
2023-03-01T04:36:06.354Z,21.30
2023-03-01T04:38:34.847Z,19.67
2023-03-01T04:41:02.032Z,19.87
2023-03-01T04:43:29.142Z,19.40
2023-03-01T04:45:56.276Z,18.77
2023-03-01T04:48:23.430Z,19.57
2023-03-01T04:50:50.584Z,18.13
2023-03-01T04:53:19.668Z,18.10
2023-03-01T04:55:46.774Z,17.43
2023-03-01T04:58:13.885Z,18.73
2023-03-01T05:00:40.992Z,17.50
2023-03-01T05:03:08.111Z,18.47
2023-03-01T05:05:37.168Z,18.90
2023-03-01T05:08:05.663Z,18.70
2023-03-01T05:10:33.561Z,17.80
2023-03-01T05:13:00.958Z,18.50
2023-03-01T05:15:28.966Z,17.30
2023-03-01T05:17:56.884Z,18.20
2023-03-01T05:20:24.031Z,18.03
2023-03-01T05:22:51.692Z,17.57
2023-03-01T05:25:18.983Z,17.60
2023-03-01T05:27:46.127Z,17.30
2023-03-01T05:30:16.423Z,16.50
2023-03-01T05:32:44.721Z,17.93
2023-03-01T05:35:15.543Z,16.70
2023-03-01T05:37:43.413Z,17.67
2023-03-01T05:40:16.423Z,16.60
2023-03-01T05:43:01.841Z,17.57
2023-03-01T05:45:29.342Z,16.97
2023-03-01T05:47:56.500Z,16.37
2023-03-01T05:50:26.205Z,17.00
2023-03-01T05:52:58.558Z,17.33
2023-03-01T05:55:27.109Z,16.70
2023-03-01T05:57:55.278Z,16.43
2023-03-01T06:00:25.377Z,17.50
2023-03-01T06:02:52.852Z,17.10
2023-03-01T06:05:20.270Z,17.60
2023-03-01T06:07:47.503Z,17.50
2023-03-01T06:10:15.154Z,16.63
2023-03-01T06:12:43.223Z,17.77
2023-03-01T06:15:11.512Z,17.13
2023-03-01T06:17:40.088Z,16.93
2023-03-01T06:20:08.601Z,18.27
2023-03-01T06:22:35.758Z,17.07
2023-03-01T06:25:02.960Z,17.23
2023-03-01T06:27:30.066Z,17.20
2023-03-01T06:29:57.191Z,16.47
2023-03-01T06:32:24.469Z,17.20
2023-03-01T06:34:51.680Z,17.70
2023-03-01T06:37:18.837Z,16.43
2023-03-01T06:39:45.907Z,15.80
2023-03-01T06:42:13.133Z,16.87
2023-03-01T06:44:40.407Z,16.30
2023-03-01T06:47:07.568Z,15.90
2023-03-01T06:49:34.701Z,15.33
2023-03-01T06:52:01.868Z,15.10
2023-03-01T06:54:28.981Z,14.83
2023-03-01T06:56:56.104Z,15.73
2023-03-01T06:59:23.322Z,15.37
2023-03-01T07:01:50.505Z,15.33
2023-03-01T07:04:17.679Z,13.97
2023-03-01T07:06:44.847Z,14.77
2023-03-01T07:09:11.981Z,14.67
2023-03-01T07:11:39.101Z,15.30
2023-03-01T07:14:07.885Z,14.73
2023-03-01T07:16:35.441Z,14.27
2023-03-01T07:19:02.752Z,14.70
2023-03-01T07:21:29.854Z,13.30
2023-03-01T07:23:57.030Z,14.00
2023-03-01T07:26:26.124Z,13.60
2023-03-01T07:28:53.463Z,13.87
2023-03-01T07:31:20.594Z,13.80
2023-03-01T07:33:47.783Z,13.80
2023-03-01T07:36:14.881Z,13.40
2023-03-01T07:38:42.019Z,12.93
2023-03-01T07:41:09.922Z,12.93
2023-03-01T07:43:37.041Z,13.73
2023-03-01T07:46:04.786Z,13.30
2023-03-01T07:48:32.742Z,15.47
2023-03-01T07:51:00.729Z,14.30
2023-03-01T07:53:27.967Z,13.77
2023-03-01T07:56:04.028Z,13.83
2023-03-01T07:58:31.272Z,13.60
2023-03-01T08:01:02.393Z,14.63
2023-03-01T08:03:29.798Z,13.57
2023-03-01T08:05:57.024Z,13.10
2023-03-01T08:08:24.207Z,14.07
2023-03-01T08:10:51.334Z,14.07
2023-03-01T08:13:23.272Z,13.97
2023-03-01T08:15:50.817Z,13.63
2023-03-01T08:18:18.455Z,14.13
2023-03-01T08:20:45.723Z,14.10
2023-03-01T08:23:12.817Z,14.43
2023-03-01T08:25:40.181Z,14.00
2023-03-01T08:28:08.456Z,13.87
2023-03-01T08:30:35.840Z,14.70
2023-03-01T08:33:03.010Z,14.67
2023-03-01T08:35:30.233Z,13.10
2023-03-01T08:37:57.390Z,14.43
2023-03-01T08:40:24.498Z,13.70
2023-03-01T08:42:51.607Z,14.20
2023-03-01T08:45:19.546Z,14.07
2023-03-01T08:47:46.687Z,13.80
2023-03-01T08:50:14.026Z,13.33
2023-03-01T08:52:41.159Z,14.03
2023-03-01T08:55:08.752Z,13.33
2023-03-01T08:57:35.860Z,13.57
2023-03-01T09:00:04.054Z,13.53
2023-03-01T09:02:31.337Z,13.67
2023-03-01T09:04:58.536Z,13.20
2023-03-01T09:07:29.147Z,13.27
2023-03-01T09:09:56.373Z,14.53
2023-03-01T09:12:23.586Z,14.93
2023-03-01T09:14:50.689Z,14.67
2023-03-01T09:17:17.902Z,14.17
2023-03-01T09:19:45.137Z,14.03
2023-03-01T09:22:12.243Z,14.27
2023-03-01T09:24:40.542Z,14.30
2023-03-01T09:27:09.743Z,14.90
2023-03-01T09:29:37.668Z,12.10
2023-03-01T09:32:05.092Z,14.37
2023-03-01T09:34:32.767Z,13.93
2023-03-01T09:37:03.360Z,13.00
2023-03-01T09:39:30.470Z,14.20
2023-03-01T09:42:03.789Z,15.23
2023-03-01T09:44:34.890Z,13.17
2023-03-01T09:47:02.759Z,13.53
2023-03-01T09:49:31.478Z,14.07
2023-03-01T09:52:05.769Z,13.87
2023-03-01T09:54:32.893Z,14.70
2023-03-01T09:57:08.498Z,14.77
2023-03-01T09:59:50.879Z,14.27
2023-03-01T10:02:40.617Z,13.87
2023-03-01T10:05:07.908Z,14.57
2023-03-01T10:07:38.116Z,14.67
2023-03-01T10:10:09.815Z,14.37
2023-03-01T10:12:39.295Z,15.60
2023-03-01T10:15:11.640Z,14.40
2023-03-01T10:18:04.089Z,15.57
2023-03-01T10:20:50.099Z,14.47
2023-03-01T10:23:17.231Z,14.97
2023-03-01T10:25:53.223Z,12.60
2023-03-01T10:28:37.763Z,15.20
2023-03-01T10:31:05.204Z,13.57
2023-03-01T10:33:38.134Z,13.67
2023-03-01T10:36:05.377Z,14.73
2023-03-01T10:38:33.653Z,12.37
2023-03-01T10:41:07.908Z,15.20
2023-03-01T10:43:43.969Z,14.33
2023-03-01T10:46:30.840Z,14.20
2023-03-01T10:49:08.765Z,14.77
2023-03-01T10:51:35.984Z,14.63
2023-03-01T10:54:03.245Z,15.10
2023-03-01T10:56:34.642Z,14.40
2023-03-01T10:59:01.794Z,15.27
2023-03-01T11:01:34.236Z,13.87
2023-03-01T11:04:07.775Z,15.00
2023-03-01T11:06:35.941Z,14.27
2023-03-01T11:09:16.608Z,14.13
2023-03-01T11:11:43.782Z,15.43
2023-03-01T11:14:26.472Z,15.20
2023-03-01T11:17:05.406Z,15.30
2023-03-01T11:19:32.674Z,15.17
2023-03-01T11:22:18.405Z,14.87
2023-03-01T11:24:49.357Z,14.60
2023-03-01T11:27:39.455Z,14.60
2023-03-01T11:30:10.494Z,12.20
2023-03-01T11:32:40.861Z,14.93
2023-03-01T11:35:10.874Z,14.13
2023-03-01T11:37:58.254Z,13.80
2023-03-01T11:40:34.563Z,15.43
2023-03-01T11:43:20.943Z,13.87
2023-03-01T11:46:08.861Z,14.40
2023-03-01T11:48:48.912Z,14.43
2023-03-01T11:51:21.519Z,13.40
2023-03-01T11:54:00.575Z,13.33
2023-03-01T11:56:53.953Z,13.93
2023-03-01T11:59:29.755Z,12.70
2023-03-01T12:02:12.341Z,14.37
2023-03-01T12:04:53.449Z,14.50
2023-03-01T12:07:43.934Z,14.73
2023-03-01T12:10:14.184Z,14.53
2023-03-01T12:12:51.823Z,15.90
2023-03-01T12:15:35.061Z,13.90
2023-03-01T12:18:05.400Z,14.63
2023-03-01T12:20:35.597Z,14.70
2023-03-01T12:23:20.140Z,13.33
2023-03-01T12:25:57.057Z,13.03
2023-03-01T12:28:48.026Z,13.13
2023-03-01T12:31:29.288Z,14.30
2023-03-01T12:34:01.172Z,14.07
2023-03-01T12:36:40.042Z,14.30
2023-03-01T12:39:42.419Z,13.67
2023-03-01T12:42:12.526Z,14.40
2023-03-01T12:44:54.575Z,14.97
2023-03-01T12:47:28.405Z,14.83
2023-03-01T12:49:57.888Z,11.83
2023-03-01T12:52:30.277Z,14.00
2023-03-01T12:54:59.004Z,14.03
2023-03-01T12:57:37.985Z,14.27
2023-03-01T13:00:08.728Z,14.07
2023-03-01T13:02:43.070Z,14.32
2023-03-01T13:05:19.346Z,14.48
2023-03-01T13:07:55.252Z,14.10
2023-03-01T13:10:25.457Z,13.60
2023-03-01T13:12:58.784Z,13.45
2023-03-01T13:15:25.899Z,13.05
2023-03-01T13:17:57.204Z,13.90
2023-03-01T13:20:35.897Z,14.38
2023-03-01T13:23:04.771Z,14.00
2023-03-01T13:25:41.082Z,14.10
2023-03-01T13:28:28.270Z,14.23
2023-03-01T13:30:55.393Z,11.27
2023-03-01T13:33:25.323Z,12.87
2023-03-01T13:35:52.510Z,13.23
2023-03-01T13:38:40.280Z,13.13
2023-03-01T13:41:07.579Z,12.80
2023-03-01T13:43:38.580Z,13.17
2023-03-01T13:46:14.180Z,13.27
2023-03-01T13:48:41.732Z,9.77
2023-03-01T13:51:10.576Z,11.37
2023-03-01T13:53:40.838Z,14.03
2023-03-01T13:56:13.674Z,11.87
2023-03-01T13:58:49.876Z,13.43
2023-03-01T14:01:27.841Z,13.57
2023-03-01T14:03:55.309Z,11.10
2023-03-01T14:06:24.210Z,13.83
2023-03-01T14:08:52.393Z,10.37
2023-03-01T14:11:38.662Z,8.63
2023-03-01T14:14:12.192Z,13.63
2023-03-01T14:16:58.085Z,13.17
2023-03-01T14:19:34.906Z,12.20
2023-03-01T14:22:20.616Z,11.63
2023-03-01T14:24:58.618Z,10.67
2023-03-01T14:27:32.280Z,12.67
2023-03-01T14:30:00.728Z,13.23
2023-03-01T14:32:29.897Z,9.93
2023-03-01T14:34:57.797Z,11.97
2023-03-01T14:37:35.700Z,12.87
2023-03-01T14:40:05.473Z,12.50
2023-03-01T14:42:35.414Z,11.13
2023-03-01T14:45:03.502Z,11.87
2023-03-01T14:47:32.422Z,12.27
2023-03-01T14:50:02.592Z,13.10
2023-03-01T14:52:35.792Z,11.90
2023-03-01T14:55:04.054Z,11.30
2023-03-01T14:57:31.199Z,11.03
2023-03-01T15:00:05.241Z,11.87
2023-03-01T15:02:33.440Z,12.20
2023-03-01T15:05:02.962Z,12.23
2023-03-01T15:07:32.369Z,11.13
2023-03-01T15:10:00.646Z,11.37
2023-03-01T15:12:30.803Z,11.93
2023-03-01T15:15:04.472Z,10.43
2023-03-01T15:17:33.618Z,11.10
2023-03-01T15:20:01.176Z,10.77
2023-03-01T15:22:28.800Z,9.00
2023-03-01T15:24:56.116Z,9.93
2023-03-01T15:27:25.587Z,9.17
2023-03-01T15:30:03.440Z,10.20
2023-03-01T15:32:32.300Z,10.13
2023-03-01T15:35:00.746Z,7.97
2023-03-01T15:37:38.127Z,9.83
2023-03-01T15:40:19.620Z,10.83
2023-03-01T15:42:47.090Z,11.50
2023-03-01T15:45:18.023Z,11.17
2023-03-01T15:47:49.543Z,10.90
2023-03-01T15:50:19.317Z,10.27
2023-03-01T15:52:46.526Z,9.83
2023-03-01T15:55:24.973Z,10.17
2023-03-01T15:58:01.400Z,10.70
2023-03-01T16:00:29.788Z,10.67
2023-03-01T16:02:57.075Z,15.83
2023-03-01T16:05:26.783Z,12.93
2023-03-01T16:07:54.365Z,11.47
2023-03-01T16:10:21.618Z,12.10
2023-03-01T16:12:48.945Z,11.13
2023-03-01T16:15:21.020Z,12.00
2023-03-01T16:21:13.622Z,14.17
2023-03-01T16:23:40.774Z,14.83
2023-03-01T16:26:07.905Z,12.70
2023-03-01T16:28:35.037Z,12.40
2023-03-01T16:31:02.692Z,13.23
2023-03-01T16:33:33.701Z,11.60
2023-03-01T16:36:03.155Z,11.67
2023-03-01T16:38:30.589Z,11.80
2023-03-01T16:40:57.719Z,11.37
2023-03-01T16:43:24.899Z,11.67
2023-03-01T16:45:52.203Z,12.43
2023-03-01T16:48:19.385Z,12.13
2023-03-01T16:50:46.526Z,12.47
2023-03-01T16:53:14.359Z,12.80
2023-03-01T16:55:46.347Z,14.17
2023-03-01T16:58:13.606Z,12.60
2023-03-01T17:00:40.702Z,13.77
2023-03-01T17:03:07.962Z,14.37
2023-03-01T17:05:35.118Z,14.17
2023-03-01T17:08:02.258Z,12.87
2023-03-01T17:10:29.426Z,13.83
2023-03-01T17:12:56.534Z,14.13
2023-03-01T17:15:23.660Z,13.70
2023-03-01T17:17:52.027Z,13.37
2023-03-01T17:20:19.517Z,14.10
2023-03-01T17:22:46.629Z,13.53
2023-03-01T17:25:14.201Z,14.37
2023-03-01T17:27:41.799Z,13.77
2023-03-01T17:30:10.119Z,13.93
2023-03-01T17:32:37.434Z,14.80
2023-03-01T17:35:04.993Z,14.43
2023-03-01T17:37:32.112Z,15.03
2023-03-01T17:39:59.240Z,15.87
2023-03-01T17:42:26.405Z,18.90
2023-03-01T17:44:53.574Z,17.90
2023-03-01T17:47:20.724Z,17.53
2023-03-01T17:49:47.810Z,14.80
2023-03-01T17:52:15.065Z,14.60
2023-03-01T17:54:42.219Z,14.77
2023-03-01T17:57:09.410Z,14.77
2023-03-01T17:59:37.372Z,15.23
2023-03-01T18:02:04.658Z,14.70
2023-03-01T18:04:32.515Z,14.83
2023-03-01T18:06:59.716Z,14.90
2023-03-01T18:09:30.529Z,14.90
2023-03-01T18:11:58.733Z,14.33
2023-03-01T18:14:29.727Z,15.93
2023-03-01T18:16:57.038Z,16.27
2023-03-01T18:19:24.202Z,15.73
2023-03-01T18:21:51.360Z,15.33
2023-03-01T18:24:18.507Z,12.23
2023-03-01T18:26:45.821Z,13.67
2023-03-01T18:29:12.933Z,14.70
2023-03-01T18:31:40.542Z,13.00
2023-03-01T18:34:07.724Z,10.40
2023-03-01T18:36:36.227Z,14.53
2023-03-01T18:39:04.557Z,15.40
2023-03-01T18:41:33.137Z,12.87
2023-03-01T18:44:01.697Z,15.50
2023-03-01T18:46:29.058Z,16.03
2023-03-01T18:48:56.373Z,13.53
2023-03-01T18:51:25.275Z,13.60
2023-03-01T18:53:52.544Z,14.27
2023-03-01T18:56:19.826Z,14.07
2023-03-01T18:58:46.994Z,14.23
2023-03-01T19:01:15.177Z,13.43
2023-03-01T19:03:42.435Z,15.93
2023-03-01T19:06:09.853Z,16.47
2023-03-01T19:08:37.214Z,14.97
2023-03-01T19:11:05.753Z,16.03
2023-03-01T19:13:34.625Z,16.07
2023-03-01T19:16:07.560Z,15.10
2023-03-01T19:18:35.403Z,14.93
2023-03-01T19:21:04.528Z,15.97
2023-03-01T19:23:35.019Z,17.13
2023-03-01T19:26:07.088Z,15.67
2023-03-01T19:28:35.718Z,16.40
2023-03-01T19:31:05.161Z,17.10
2023-03-01T19:33:34.154Z,17.40
2023-03-01T19:36:01.412Z,17.23
2023-03-01T19:38:28.846Z,17.10
2023-03-01T19:40:56.749Z,17.17
2023-03-01T19:43:25.091Z,18.13
2023-03-01T19:45:52.752Z,17.53
2023-03-01T19:48:19.884Z,17.70
2023-03-01T19:50:47.075Z,17.43
2023-03-01T19:53:14.565Z,18.07
2023-03-01T19:55:42.414Z,18.67
2023-03-01T19:58:12.886Z,17.80
2023-03-01T20:00:41.128Z,18.87
2023-03-01T20:03:08.343Z,18.40
2023-03-01T20:05:36.157Z,19.43
2023-03-01T20:08:03.763Z,18.63
2023-03-01T20:10:31.620Z,18.80
2023-03-01T20:12:59.040Z,18.60
2023-03-01T20:15:26.412Z,19.20
2023-03-01T20:17:53.528Z,18.17
2023-03-01T20:20:20.678Z,18.03
2023-03-01T20:22:47.799Z,18.20
2023-03-01T20:25:15.052Z,19.47
2023-03-01T20:27:47.069Z,17.63
2023-03-01T20:30:15.400Z,19.23
2023-03-01T20:32:42.600Z,19.03
2023-03-01T20:35:10.059Z,18.87
2023-03-01T20:37:37.389Z,19.50
2023-03-01T20:40:04.793Z,21.07
2023-03-01T20:42:31.956Z,20.63
2023-03-01T20:44:59.034Z,20.00
2023-03-01T20:47:26.305Z,21.37
2023-03-01T20:49:53.751Z,21.23
2023-03-01T20:52:20.899Z,20.60
2023-03-01T20:54:48.633Z,20.50
2023-03-01T20:57:15.902Z,19.17
2023-03-01T20:59:43.204Z,20.13
2023-03-01T21:02:11.378Z,20.80
2023-03-01T21:04:38.572Z,20.97
2023-03-01T21:07:05.704Z,19.90
2023-03-01T21:09:32.848Z,20.73
2023-03-01T21:12:00.017Z,21.43
2023-03-01T21:14:27.185Z,21.53
2023-03-01T21:16:54.332Z,20.73
2023-03-01T21:19:22.483Z,19.07
2023-03-01T21:21:50.762Z,19.97
2023-03-01T21:24:17.904Z,19.73
2023-03-01T21:26:45.033Z,20.53
2023-03-01T21:29:12.178Z,20.57
2023-03-01T21:31:39.317Z,21.57
2023-03-01T21:34:07.504Z,20.83
2023-03-01T21:36:35.694Z,20.97
2023-03-01T21:39:03.265Z,21.13
2023-03-01T21:41:31.880Z,20.73
2023-03-01T21:44:07.186Z,20.73
2023-03-01T21:46:36.773Z,21.07
2023-03-01T21:49:04.905Z,21.57
2023-03-01T21:51:32.622Z,21.20
2023-03-01T21:54:01.340Z,21.77
2023-03-01T21:56:31.745Z,21.87
2023-03-01T21:58:59.481Z,22.97
2023-03-01T22:01:27.707Z,22.23
2023-03-01T22:03:55.793Z,22.47
2023-03-01T22:06:24.621Z,23.23
2023-03-01T22:08:57.134Z,22.87
2023-03-01T22:11:26.089Z,23.73
2023-03-01T22:13:55.474Z,26.20
2023-03-01T22:16:24.230Z,25.33
2023-03-01T22:18:51.519Z,26.37
2023-03-01T22:21:18.748Z,24.87
2023-03-01T22:23:45.902Z,23.43
2023-03-01T22:26:22.258Z,23.90
2023-03-01T22:28:49.414Z,24.33
2023-03-01T22:31:16.586Z,22.90
2023-03-01T22:33:43.779Z,23.27
2023-03-01T22:36:10.878Z,22.23
2023-03-01T22:38:39.359Z,23.57
2023-03-01T22:41:06.858Z,24.27
2023-03-01T22:43:34.358Z,23.37
2023-03-01T22:46:09.867Z,22.93
2023-03-01T22:48:37.020Z,23.93
2023-03-01T22:51:04.237Z,23.83
2023-03-01T22:53:31.371Z,24.37
2023-03-01T22:55:58.498Z,23.97
2023-03-01T22:58:25.653Z,24.07
2023-03-01T23:00:52.795Z,23.83
2023-03-01T23:03:20.023Z,23.93
2023-03-01T23:05:47.240Z,23.27
2023-03-01T23:08:14.404Z,23.77
2023-03-01T23:10:42.143Z,23.60
2023-03-01T23:13:09.387Z,23.57
2023-03-01T23:15:36.665Z,24.50
2023-03-01T23:18:03.843Z,22.87
2023-03-01T23:20:30.957Z,23.43
2023-03-01T23:23:01.519Z,23.50
2023-03-01T23:25:28.766Z,22.87
2023-03-01T23:27:55.850Z,22.13
2023-03-01T23:30:23.003Z,22.93
2023-03-01T23:32:50.460Z,22.27
2023-03-01T23:35:17.688Z,22.83
2023-03-01T23:37:45.496Z,20.37
2023-03-01T23:40:12.887Z,21.80
2023-03-01T23:42:40.726Z,22.13
2023-03-01T23:45:08.836Z,20.93
2023-03-01T23:47:36.469Z,22.70
2023-03-01T23:50:05.377Z,21.07
2023-03-01T23:52:38.949Z,20.87
2023-03-01T23:55:08.459Z,22.00
2023-03-01T23:57:35.607Z,21.57
